createdAt,value
2022-11-02T00:01:49.976Z,1.48
2022-11-02T00:04:35.912Z,1.67
2022-11-02T00:07:21.415Z,1.88
2022-11-02T00:10:08.165Z,1.75
2022-11-02T00:12:53.621Z,1.23
2022-11-02T00:15:39.470Z,1.77
2022-11-02T00:18:25.092Z,1.27
2022-11-02T00:21:11.449Z,1.45
2022-11-02T00:23:58.178Z,2.05
2022-11-02T00:26:43.593Z,1.23
2022-11-02T00:29:33.578Z,1.63
2022-11-02T00:32:19.289Z,1.10
2022-11-02T00:35:05.564Z,1.10
2022-11-02T00:37:50.783Z,1.25
2022-11-02T00:40:36.306Z,1.88
2022-11-02T00:43:21.655Z,1.50
2022-11-02T00:46:07.162Z,1.95
2022-11-02T00:48:52.691Z,1.38
2022-11-02T00:51:38.452Z,0.98
2022-11-02T00:54:25.975Z,0.98
2022-11-02T00:57:14.026Z,0.93
2022-11-02T00:59:59.402Z,1.30
2022-11-02T01:02:45.307Z,1.13
2022-11-02T01:05:31.081Z,1.20
2022-11-02T01:08:16.753Z,0.88
2022-11-02T01:11:14.368Z,2.33
2022-11-02T01:13:59.569Z,2.13
2022-11-02T01:19:32.388Z,1.33
2022-11-02T01:22:17.618Z,1.10
2022-11-02T01:25:03.457Z,1.60
2022-11-02T01:27:48.677Z,0.93
2022-11-02T01:30:34.210Z,2.20
2022-11-02T01:33:19.540Z,1.67
2022-11-02T01:36:07.122Z,1.20
2022-11-02T01:38:54.768Z,1.65
2022-11-02T01:41:40.784Z,1.10
2022-11-02T01:44:34.989Z,1.50
2022-11-02T01:47:32.927Z,1.75
2022-11-02T01:50:22.695Z,1.92
2022-11-02T01:53:08.729Z,1.23
2022-11-02T01:55:55.140Z,1.55
2022-11-02T01:58:42.085Z,1.50
2022-11-02T02:01:27.643Z,1.20
2022-11-02T02:04:14.366Z,1.75
2022-11-02T02:06:59.989Z,1.25
2022-11-02T02:09:48.749Z,2.15
2022-11-02T02:12:39.652Z,1.63
2022-11-02T02:15:36.328Z,1.65
2022-11-02T02:18:35.253Z,1.45
2022-11-02T02:21:38.467Z,1.30
2022-11-02T02:24:56.841Z,1.65
2022-11-02T02:28:00.538Z,1.45
2022-11-02T02:31:00.334Z,1.58
2022-11-02T02:34:09.863Z,1.55
2022-11-02T02:37:24.119Z,1.40
2022-11-02T02:40:19.022Z,1.40
2022-11-02T02:43:12.412Z,1.48
2022-11-02T02:50:35.917Z,2.05
2022-11-02T02:53:25.895Z,1.33
2022-11-02T02:56:13.711Z,2.40
2022-11-02T02:59:03.163Z,1.52
2022-11-02T03:01:48.690Z,1.80
2022-11-02T03:04:34.298Z,1.67
2022-11-02T03:07:29.551Z,1.67
2022-11-02T03:10:29.574Z,1.98
2022-11-02T03:13:40.967Z,1.38
2022-11-02T03:16:29.373Z,2.03
2022-11-02T03:19:55.362Z,1.75
2022-11-02T03:22:45.987Z,4.28
2022-11-02T03:25:34.478Z,2.40
2022-11-02T03:28:42.774Z,2.00
2022-11-02T03:31:36.721Z,1.73
2022-11-02T03:34:39.210Z,1.63
2022-11-02T03:37:30.318Z,2.30
2022-11-02T03:40:26.243Z,1.38
2022-11-02T03:43:13.614Z,2.33
2022-11-02T03:46:02.650Z,3.25
2022-11-02T03:48:50.276Z,1.35
2022-11-02T03:51:38.520Z,2.17
2022-11-02T03:54:35.010Z,1.77
2022-11-02T03:57:27.236Z,1.48
2022-11-02T04:00:14.894Z,1.60
2022-11-02T04:03:08.121Z,2.17
2022-11-02T04:05:53.287Z,1.80
2022-11-02T04:08:49.309Z,2.83
2022-11-02T04:11:54.702Z,2.80
2022-11-02T04:14:40.283Z,1.90
2022-11-02T04:17:44.397Z,1.70
2022-11-02T04:23:50.174Z,1.80
2022-11-02T04:26:35.581Z,2.80
2022-11-02T04:29:21.055Z,1.60
2022-11-02T04:32:06.796Z,2.35
2022-11-02T04:34:52.333Z,2.45
2022-11-02T04:38:03.333Z,2.05
2022-11-02T04:40:51.049Z,2.65
2022-11-02T04:43:36.297Z,2.22
2022-11-02T04:46:23.411Z,1.80
2022-11-02T04:49:09.288Z,1.95
2022-11-02T04:51:54.724Z,2.00
2022-11-02T04:54:40.235Z,2.58
2022-11-02T04:57:25.688Z,1.33
2022-11-02T05:00:11.993Z,3.22
2022-11-02T05:02:57.181Z,1.67
2022-11-02T05:05:43.736Z,1.90
2022-11-02T05:08:29.396Z,2.05
2022-11-02T05:11:14.803Z,2.65
2022-11-02T05:14:00.213Z,2.10
2022-11-02T05:16:45.446Z,2.33
2022-11-02T05:19:31.110Z,2.17
2022-11-02T05:22:16.635Z,2.38
2022-11-02T05:25:02.759Z,1.52
2022-11-02T05:27:48.028Z,2.05
2022-11-02T05:30:33.351Z,2.78
2022-11-02T05:33:19.569Z,1.60
2022-11-02T05:36:05.155Z,3.63
2022-11-02T05:38:54.546Z,2.63
2022-11-02T05:41:40.589Z,3.13
2022-11-02T05:44:26.175Z,2.30
2022-11-02T05:47:11.592Z,4.38
2022-11-02T05:49:57.004Z,2.25
2022-11-02T05:52:42.493Z,2.20
2022-11-02T05:55:28.329Z,2.40
2022-11-02T05:58:13.843Z,1.85
2022-11-02T06:01:00.520Z,1.67
2022-11-02T06:03:50.588Z,2.40
2022-11-02T06:06:39.056Z,1.83
2022-11-02T06:09:24.646Z,2.28
2022-11-02T06:12:10.030Z,3.90
2022-11-02T06:14:55.877Z,2.22
2022-11-02T06:17:41.287Z,2.33
2022-11-02T06:20:26.688Z,3.03
2022-11-02T06:23:14.448Z,2.20
2022-11-02T06:26:00.752Z,2.25
2022-11-02T06:28:45.979Z,2.80
2022-11-02T06:31:31.610Z,1.67
2022-11-02T06:34:17.935Z,2.17
2022-11-02T06:37:04.070Z,2.35
2022-11-02T06:39:49.813Z,4.15
2022-11-02T06:42:40.466Z,2.40
2022-11-02T06:45:31.090Z,2.67
2022-11-02T06:48:16.798Z,2.75
2022-11-02T06:51:02.861Z,2.50
2022-11-02T06:53:48.496Z,2.72
2022-11-02T06:56:34.260Z,2.53
2022-11-02T06:59:19.681Z,2.53
2022-11-02T07:02:05.370Z,2.75
2022-11-02T07:04:50.906Z,2.70
2022-11-02T07:07:36.573Z,3.17
2022-11-02T07:10:22.383Z,2.58
2022-11-02T07:13:07.788Z,2.40
2022-11-02T07:15:54.833Z,1.92
2022-11-02T07:18:41.472Z,2.30
2022-11-02T07:21:27.390Z,3.10
2022-11-02T07:24:12.757Z,2.00
2022-11-02T07:26:58.180Z,3.88
2022-11-02T07:29:43.862Z,1.92
2022-11-02T07:32:29.197Z,2.00
2022-11-02T07:35:16.308Z,2.33
2022-11-02T07:38:04.110Z,3.00
2022-11-02T07:40:52.764Z,2.30
2022-11-02T07:43:41.333Z,1.83
2022-11-02T07:46:28.992Z,2.72
2022-11-02T07:49:20.185Z,2.28
2022-11-02T07:52:06.956Z,2.50
2022-11-02T07:54:52.765Z,2.03
2022-11-02T07:57:38.187Z,2.78
2022-11-02T08:00:24.666Z,2.95
2022-11-02T08:03:11.719Z,2.13
2022-11-02T08:06:00.711Z,2.10
2022-11-02T08:08:46.006Z,2.75
2022-11-02T08:11:31.473Z,2.55
2022-11-02T08:14:16.958Z,2.85
2022-11-02T08:17:02.691Z,2.10
2022-11-02T08:19:48.095Z,2.33
2022-11-02T08:22:37.970Z,2.30
2022-11-02T08:25:23.550Z,2.33
2022-11-02T08:28:19.391Z,2.50
2022-11-02T08:31:04.892Z,2.17
2022-11-02T08:33:50.077Z,2.40
2022-11-02T08:36:36.849Z,3.42
2022-11-02T08:39:22.058Z,3.45
2022-11-02T08:42:07.561Z,2.45
2022-11-02T08:44:53.054Z,2.35
2022-11-02T08:47:42.354Z,2.97
2022-11-02T08:50:28.127Z,3.00
2022-11-02T08:53:13.701Z,4.68
2022-11-02T08:55:59.350Z,4.35
2022-11-02T08:58:44.624Z,4.00
2022-11-02T09:01:30.299Z,3.83
2022-11-02T09:04:15.804Z,4.65
2022-11-02T09:07:01.230Z,3.55
2022-11-02T09:09:46.587Z,2.90
2022-11-02T09:12:32.522Z,3.30
2022-11-02T09:15:18.224Z,9.90
2022-11-02T09:18:04.975Z,8.68
2022-11-02T09:20:51.490Z,3.92
2022-11-02T09:23:37.021Z,3.17
2022-11-02T09:26:22.614Z,3.17
2022-11-02T09:29:08.497Z,3.35
2022-11-02T09:31:54.120Z,2.97
2022-11-02T09:34:40.061Z,4.57
2022-11-02T09:37:25.334Z,3.08
2022-11-02T09:40:12.201Z,3.00
2022-11-02T09:43:29.550Z,4.45
2022-11-02T09:46:24.105Z,5.07
2022-11-02T09:49:20.009Z,3.75
2022-11-02T09:52:07.651Z,3.05
2022-11-02T09:54:54.879Z,3.38
2022-11-02T09:57:45.890Z,3.00
2022-11-02T10:00:38.050Z,3.50
2022-11-02T10:03:55.632Z,2.55
2022-11-02T10:06:47.308Z,3.45
2022-11-02T10:09:49.648Z,2.90
2022-11-02T10:12:50.221Z,2.60
2022-11-02T10:15:41.319Z,2.67
2022-11-02T10:18:29.238Z,2.75
2022-11-02T10:21:23.835Z,2.60
2022-11-02T10:24:35.904Z,2.55
2022-11-02T10:27:29.324Z,3.03
2022-11-02T10:30:18.556Z,3.00
2022-11-02T10:33:15.357Z,3.28
2022-11-02T10:36:24.885Z,3.13
2022-11-02T10:39:29.819Z,3.30
2022-11-02T10:42:45.720Z,3.22
2022-11-02T10:45:51.562Z,2.60
2022-11-02T10:48:58.769Z,4.03
2022-11-02T10:51:44.270Z,3.17
2022-11-02T10:54:34.725Z,2.47
2022-11-02T10:57:24.014Z,3.03
2022-11-02T11:00:28.910Z,3.33
2022-11-02T11:03:16.588Z,2.25
2022-11-02T11:06:04.599Z,2.63
2022-11-02T11:08:52.129Z,2.35
2022-11-02T11:11:38.913Z,2.10
2022-11-02T11:20:45.843Z,3.00
2022-11-02T11:23:31.722Z,3.47
2022-11-02T11:26:30.755Z,3.00
2022-11-02T11:29:23.333Z,2.90
2022-11-02T11:32:29.591Z,2.78
2022-11-02T11:35:19.108Z,2.97
2022-11-02T11:38:14.919Z,4.30
2022-11-02T11:41:00.688Z,3.10
2022-11-02T11:43:47.390Z,3.17
2022-11-02T11:46:46.730Z,2.50
2022-11-02T11:50:02.986Z,2.17
2022-11-02T11:52:41.239Z,2.65
2022-11-02T11:55:28.876Z,2.80
2022-11-02T11:58:22.335Z,2.65
2022-11-02T12:01:20.126Z,2.80
2022-11-02T12:04:05.582Z,2.63
2022-11-02T12:07:03.005Z,2.15
2022-11-02T12:10:03.467Z,2.92
2022-11-02T12:13:07.395Z,2.97
2022-11-02T12:16:01.777Z,2.60
2022-11-02T12:19:08.420Z,2.55
2022-11-02T12:22:23.795Z,2.92
2022-11-02T12:25:29.252Z,3.08
2022-11-02T12:28:52.933Z,3.20
2022-11-02T12:31:45.273Z,3.55
2022-11-02T12:35:27.794Z,3.40
2022-11-02T12:38:27.193Z,2.80
2022-11-02T12:41:21.839Z,3.13
2022-11-02T12:44:28.807Z,3.40
2022-11-02T12:47:31.304Z,3.10
2022-11-02T12:50:32.095Z,2.65
2022-11-02T12:53:57.857Z,3.47
2022-11-02T12:56:50.950Z,2.78
2022-11-02T12:59:38.375Z,3.25
2022-11-02T13:02:35.243Z,3.80
2022-11-02T13:05:38.481Z,3.92
2022-11-02T13:08:39.365Z,4.63
2022-11-02T13:11:43.989Z,2.80
2022-11-02T13:14:39.992Z,4.32
2022-11-02T13:17:52.744Z,3.28
2022-11-02T13:20:50.358Z,3.63
2022-11-02T13:23:45.649Z,3.53
2022-11-02T13:26:41.497Z,3.45
2022-11-02T13:29:40.228Z,3.45
2022-11-02T13:32:41.951Z,2.78
2022-11-02T13:35:35.047Z,3.90
2022-11-02T13:38:35.401Z,3.53
2022-11-02T13:41:26.781Z,3.35
2022-11-02T13:44:23.053Z,3.17
2022-11-02T13:47:20.485Z,4.15
2022-11-02T13:50:12.082Z,4.63
2022-11-02T13:53:05.235Z,3.92
2022-11-02T13:56:00.332Z,3.03
2022-11-02T13:58:56.191Z,5.13
2022-11-02T14:01:45.205Z,3.67
2022-11-02T14:04:41.982Z,4.25
2022-11-02T14:07:35.513Z,3.75
2022-11-02T14:10:20.911Z,3.95
2022-11-02T14:13:13.566Z,3.92
2022-11-02T14:15:58.909Z,3.20
2022-11-02T14:18:44.493Z,4.05
2022-11-02T14:21:59.640Z,4.05
2022-11-02T14:24:53.983Z,4.85
2022-11-02T14:27:39.742Z,4.63
2022-11-02T14:30:44.196Z,4.47
2022-11-02T14:33:51.029Z,3.30
2022-11-02T14:37:19.128Z,3.30
2022-11-02T14:40:13.443Z,5.35
2022-11-02T14:43:16.063Z,3.42
2022-11-02T14:46:24.906Z,3.80
2022-11-02T14:49:23.142Z,3.70
2022-11-02T14:52:14.968Z,4.53
2022-11-02T14:55:06.132Z,4.43
2022-11-02T14:57:56.860Z,3.53
2022-11-02T15:00:48.407Z,4.10
2022-11-02T15:03:41.347Z,4.20
2022-11-02T15:06:29.183Z,3.78
2022-11-02T15:09:54.299Z,3.63
2022-11-02T15:12:41.360Z,3.28
2022-11-02T15:15:31.173Z,2.67
2022-11-02T15:18:37.344Z,3.65
2022-11-02T15:21:23.618Z,3.08
2022-11-02T15:24:18.928Z,4.43
2022-11-02T15:27:07.373Z,4.10
2022-11-02T15:29:53.240Z,4.32
2022-11-02T15:32:44.232Z,3.80
2022-11-02T15:35:37.994Z,3.60
2022-11-02T15:38:33.791Z,3.80
2022-11-02T15:41:37.303Z,4.35
2022-11-02T15:44:27.359Z,3.35
2022-11-02T15:47:29.318Z,4.30
2022-11-02T15:50:45.368Z,4.07
2022-11-02T15:53:36.811Z,4.22
2022-11-02T15:56:28.252Z,3.28
2022-11-02T15:59:44.403Z,4.97
2022-11-02T16:02:35.062Z,3.08
2022-11-02T16:05:31.012Z,4.32
2022-11-02T16:08:36.031Z,3.97
2022-11-02T16:11:21.589Z,3.75
2022-11-02T16:14:17.271Z,4.30
2022-11-02T16:17:02.940Z,4.93
2022-11-02T16:19:49.890Z,4.72
2022-11-02T16:22:44.960Z,3.13
2022-11-02T16:25:39.595Z,4.07
2022-11-02T16:28:31.722Z,4.15
2022-11-02T16:31:21.425Z,3.33
2022-11-02T16:34:31.155Z,4.32
2022-11-02T16:37:19.262Z,3.55
2022-11-02T16:40:06.716Z,4.15
2022-11-02T16:42:53.494Z,3.60
2022-11-02T16:45:43.365Z,3.53
2022-11-02T16:48:33.786Z,4.00
2022-11-02T16:51:19.609Z,4.15
2022-11-02T16:54:24.983Z,3.78
2022-11-02T16:57:12.134Z,3.25
2022-11-02T16:59:59.749Z,4.30
2022-11-02T17:02:45.662Z,3.35
2022-11-02T17:05:31.357Z,3.50
2022-11-02T17:08:26.756Z,3.30
2022-11-02T17:11:17.038Z,4.00
2022-11-02T17:14:02.840Z,3.30
2022-11-02T17:17:30.375Z,3.55
2022-11-02T17:20:21.886Z,3.17
2022-11-02T17:23:09.786Z,3.33
2022-11-02T17:26:26.997Z,3.47
2022-11-02T17:29:27.460Z,3.63
2022-11-02T17:32:17.147Z,3.63
2022-11-02T17:35:04.816Z,3.95
2022-11-02T17:37:50.559Z,3.88
2022-11-02T17:40:37.212Z,4.38
2022-11-02T17:43:23.774Z,3.40
2022-11-02T17:46:09.220Z,4.00
2022-11-02T17:48:55.016Z,3.88
2022-11-02T17:51:41.678Z,5.13
2022-11-02T17:54:27.009Z,3.55
2022-11-02T17:57:14.519Z,4.63
2022-11-02T17:59:59.779Z,4.22
2022-11-02T18:02:49.321Z,4.35
2022-11-02T18:05:36.451Z,5.20
2022-11-02T18:08:22.051Z,3.90
2022-11-02T18:11:09.445Z,4.05
2022-11-02T18:13:55.142Z,4.10
2022-11-02T18:16:40.565Z,3.40
2022-11-02T18:19:26.141Z,3.35
2022-11-02T18:22:13.450Z,3.40
2022-11-02T18:24:58.860Z,4.00
2022-11-02T18:27:45.779Z,3.58
2022-11-02T18:30:32.473Z,4.35
2022-11-02T18:33:18.338Z,3.05
2022-11-02T18:36:09.487Z,5.18
2022-11-02T18:38:55.184Z,4.57
2022-11-02T18:41:42.392Z,3.63
2022-11-02T18:44:27.781Z,4.18
2022-11-02T18:47:13.364Z,4.35
2022-11-02T18:50:00.169Z,4.10
2022-11-02T18:52:49.129Z,3.83
2022-11-02T18:55:34.734Z,4.60
2022-11-02T18:58:20.457Z,3.28
2022-11-02T19:01:10.513Z,5.13
2022-11-02T19:03:58.398Z,3.85
2022-11-02T19:07:02.084Z,3.95
2022-11-02T19:09:47.604Z,3.50
2022-11-02T19:12:32.996Z,4.68
2022-11-02T19:15:18.402Z,3.40
2022-11-02T19:18:04.024Z,3.33
2022-11-02T19:20:49.395Z,5.82
2022-11-02T19:23:35.081Z,3.55
2022-11-02T19:26:20.537Z,4.15
2022-11-02T19:29:06.943Z,5.15
2022-11-02T19:31:53.389Z,4.10
2022-11-02T19:34:39.351Z,4.07
2022-11-02T19:37:25.029Z,3.17
2022-11-02T19:40:11.057Z,3.88
2022-11-02T19:42:56.911Z,5.85
2022-11-02T19:45:42.529Z,4.95
2022-11-02T19:48:28.576Z,3.75
2022-11-02T19:51:25.896Z,3.97
2022-11-02T19:54:11.709Z,4.38
2022-11-02T19:56:57.577Z,5.43
2022-11-02T19:59:43.138Z,4.22
2022-11-02T20:02:28.825Z,5.50
2022-11-02T20:05:14.707Z,4.35
2022-11-02T20:08:00.341Z,4.13
2022-11-02T20:10:45.862Z,5.00
2022-11-02T20:13:36.496Z,5.13
2022-11-02T20:16:22.022Z,3.67
2022-11-02T20:19:09.047Z,5.20
2022-11-02T20:21:54.681Z,5.03
2022-11-02T20:24:40.510Z,5.22
2022-11-02T20:27:25.902Z,4.38
2022-11-02T20:30:12.714Z,4.35
2022-11-02T20:32:58.037Z,3.97
2022-11-02T20:35:45.671Z,4.13
2022-11-02T20:38:31.715Z,3.38
2022-11-02T20:41:19.652Z,4.53
2022-11-02T20:44:05.413Z,3.58
2022-11-02T20:46:53.275Z,3.92
2022-11-02T20:49:54.463Z,2.75
2022-11-02T20:52:39.593Z,3.28
2022-11-02T20:55:26.018Z,5.55
2022-11-02T20:58:11.684Z,3.70
2022-11-02T21:05:23.363Z,4.25
2022-11-02T21:08:09.269Z,4.50
2022-11-02T21:10:56.827Z,4.70
2022-11-02T21:13:54.150Z,5.03
2022-11-02T21:16:40.025Z,4.18
2022-11-02T21:19:25.540Z,5.20
2022-11-02T21:22:15.143Z,4.53
2022-11-02T21:25:01.176Z,6.18
2022-11-02T21:27:50.532Z,5.00
2022-11-02T21:30:36.087Z,4.43
2022-11-02T21:33:21.607Z,4.65
2022-11-02T21:36:08.007Z,5.13
2022-11-02T21:38:53.468Z,4.53
2022-11-02T21:41:39.506Z,4.65
2022-11-02T21:44:25.812Z,4.35
2022-11-02T21:47:13.063Z,6.35
2022-11-02T21:49:58.821Z,4.22
2022-11-02T21:52:45.314Z,4.78
2022-11-02T21:55:30.791Z,3.88
2022-11-02T21:58:16.975Z,4.40
2022-11-02T22:01:26.664Z,4.10
2022-11-02T22:04:24.850Z,4.70
2022-11-02T22:07:10.575Z,3.35
2022-11-02T22:09:55.801Z,3.72
2022-11-02T22:12:59.689Z,4.30
2022-11-02T22:15:45.806Z,3.63
2022-11-02T22:18:31.372Z,3.58
2022-11-02T22:21:18.161Z,4.43
2022-11-02T22:24:04.750Z,4.07
2022-11-02T22:26:51.203Z,3.75
2022-11-02T22:29:36.677Z,3.28
2022-11-02T22:32:22.450Z,3.17
2022-11-02T22:35:10.906Z,4.35
2022-11-02T22:38:15.018Z,3.85
2022-11-02T22:41:08.643Z,5.05
2022-11-02T22:43:59.429Z,4.03
2022-11-02T22:46:50.460Z,3.72
2022-11-02T22:49:36.359Z,3.72
2022-11-02T22:52:21.632Z,3.28
2022-11-02T22:55:07.950Z,4.38
2022-11-02T22:57:59.806Z,4.03
2022-11-02T23:00:46.469Z,2.75
2022-11-02T23:03:33.483Z,3.22
2022-11-02T23:06:21.384Z,2.85
2022-11-02T23:09:07.264Z,2.80
2022-11-02T23:11:52.782Z,2.80
2022-11-02T23:14:38.125Z,3.65
2022-11-02T23:17:23.576Z,4.40
2022-11-02T23:20:09.857Z,3.30
2022-11-02T23:23:17.542Z,3.65
2022-11-02T23:26:03.188Z,4.07
2022-11-02T23:29:07.220Z,3.78
2022-11-02T23:32:11.217Z,3.78
2022-11-02T23:35:16.696Z,4.20
2022-11-02T23:38:05.010Z,3.13
2022-11-02T23:40:54.938Z,4.13
2022-11-02T23:43:40.478Z,3.58
2022-11-02T23:46:26.036Z,3.05
2022-11-02T23:49:12.594Z,2.50
2022-11-02T23:52:16.502Z,3.45
2022-11-02T23:55:20.441Z,3.13
2022-11-02T23:58:05.989Z,4.20
